createdAt,value
2023-05-11T00:01:33.839Z,11.40
2023-05-11T00:04:30.872Z,11.40
2023-05-11T00:07:27.866Z,11.40
2023-05-11T00:10:24.677Z,11.40
2023-05-11T00:13:21.652Z,11.40
2023-05-11T00:16:18.538Z,11.40
2023-05-11T00:19:15.425Z,11.40
2023-05-11T00:22:12.412Z,11.50
2023-05-11T00:25:09.636Z,11.50
2023-05-11T00:28:07.565Z,11.40
2023-05-11T00:31:04.429Z,11.30
2023-05-11T00:34:01.386Z,11.30
2023-05-11T00:36:59.252Z,11.30
2023-05-11T00:39:56.089Z,11.30
2023-05-11T00:42:52.928Z,11.20
2023-05-11T00:45:49.839Z,11.30
2023-05-11T00:48:46.764Z,11.30
2023-05-11T00:51:44.366Z,11.30
2023-05-11T00:54:41.973Z,11.30
2023-05-11T00:57:39.073Z,11.20
2023-05-11T01:00:36.824Z,11.20
2023-05-11T01:03:35.476Z,11.20
2023-05-11T01:07:06.569Z,11.20
2023-05-11T01:10:34.133Z,11.20
2023-05-11T01:13:40.401Z,11.20
2023-05-11T01:16:41.227Z,11.10
2023-05-11T01:19:55.966Z,11.10
2023-05-11T01:23:21.838Z,11.10
2023-05-11T01:26:21.903Z,11.00
2023-05-11T01:29:43.015Z,11.00
2023-05-11T01:32:42.227Z,11.10
2023-05-11T01:35:46.010Z,11.20
2023-05-11T01:38:47.436Z,11.10
2023-05-11T01:41:51.636Z,11.10
2023-05-11T01:44:54.128Z,11.10
2023-05-11T01:47:52.183Z,11.10
2023-05-11T01:50:50.999Z,11.10
2023-05-11T01:53:49.132Z,11.00
2023-05-11T01:56:47.323Z,11.00
2023-05-11T01:59:45.218Z,11.00
2023-05-11T02:02:45.848Z,11.00
2023-05-11T02:05:43.842Z,10.90
2023-05-11T02:08:41.951Z,10.90
2023-05-11T02:11:40.376Z,10.80
2023-05-11T02:14:37.996Z,10.90
2023-05-11T02:17:35.976Z,10.90
2023-05-11T02:20:34.869Z,10.90
2023-05-11T02:23:33.240Z,10.90
2023-05-11T02:26:30.085Z,10.80
2023-05-11T02:29:27.381Z,10.90
2023-05-11T02:32:25.735Z,10.90
2023-05-11T02:35:32.806Z,10.80
2023-05-11T02:38:35.914Z,10.70
2023-05-11T02:41:38.682Z,10.80
2023-05-11T02:44:37.988Z,10.80
2023-05-11T02:47:53.299Z,10.80
2023-05-11T02:50:52.408Z,10.70
2023-05-11T02:53:51.674Z,10.70
2023-05-11T02:56:49.312Z,10.70
2023-05-11T02:59:46.759Z,10.80
2023-05-11T03:02:43.685Z,10.70
2023-05-11T03:05:40.984Z,10.70
2023-05-11T03:08:38.037Z,10.70
2023-05-11T03:11:35.131Z,10.60
2023-05-11T03:14:36.314Z,10.60
2023-05-11T03:17:33.581Z,10.70
2023-05-11T03:20:31.615Z,10.60
2023-05-11T03:23:30.557Z,10.70
2023-05-11T03:26:30.214Z,10.70
2023-05-11T03:29:28.957Z,10.70
2023-05-11T03:32:25.982Z,10.60
2023-05-11T03:35:27.521Z,10.60
2023-05-11T03:38:27.898Z,10.60
2023-05-11T03:41:26.634Z,10.60
2023-05-11T03:44:25.819Z,10.60
2023-05-11T03:47:23.373Z,10.60
2023-05-11T03:50:21.246Z,10.50
2023-05-11T03:53:18.349Z,10.50
2023-05-11T03:56:16.395Z,10.60
2023-05-11T03:59:17.304Z,10.50
2023-05-11T04:02:14.231Z,10.50
2023-05-11T04:05:12.243Z,10.50
2023-05-11T04:08:10.768Z,10.50
2023-05-11T04:11:07.714Z,10.50
2023-05-11T04:14:04.887Z,10.60
2023-05-11T04:17:01.876Z,10.60
2023-05-11T04:20:00.425Z,10.70
2023-05-11T04:22:57.364Z,10.70
2023-05-11T04:25:55.033Z,10.70
2023-05-11T04:28:52.051Z,10.80
2023-05-11T04:31:48.928Z,10.70
2023-05-11T04:34:46.101Z,10.80
2023-05-11T04:37:42.934Z,10.80
2023-05-11T04:40:39.875Z,10.80
2023-05-11T04:43:36.705Z,10.90
2023-05-11T04:46:33.669Z,10.80
2023-05-11T04:49:30.580Z,10.90
2023-05-11T04:52:27.492Z,11.00
2023-05-11T04:55:24.415Z,11.10
2023-05-11T04:58:21.322Z,11.10
2023-05-11T05:01:18.219Z,11.10
2023-05-11T05:04:16.567Z,11.20
2023-05-11T05:07:13.598Z,11.20
2023-05-11T05:10:12.417Z,11.20
2023-05-11T05:13:09.252Z,11.40
2023-05-11T05:16:06.262Z,11.40
2023-05-11T05:19:03.211Z,11.50
2023-05-11T05:22:00.292Z,11.50
2023-05-11T05:24:57.231Z,11.60
2023-05-11T05:27:54.142Z,11.60
2023-05-11T05:30:51.006Z,11.70
2023-05-11T05:33:47.936Z,11.70
2023-05-11T05:36:45.169Z,11.80
2023-05-11T05:39:41.993Z,11.80
2023-05-11T05:42:38.861Z,11.90
2023-05-11T05:45:35.756Z,11.90
2023-05-11T05:48:32.676Z,12.00
2023-05-11T05:51:29.643Z,12.00
2023-05-11T05:54:26.462Z,12.10
2023-05-11T05:57:23.367Z,12.20
2023-05-11T06:00:20.699Z,12.30
2023-05-11T06:03:17.713Z,12.30
2023-05-11T06:06:14.731Z,12.40
2023-05-11T06:09:11.899Z,12.40
2023-05-11T06:12:10.065Z,12.50
2023-05-11T06:15:07.868Z,12.50
2023-05-11T06:18:05.271Z,12.70
2023-05-11T06:21:02.202Z,12.80
2023-05-11T06:23:59.120Z,12.90
2023-05-11T06:26:55.984Z,13.00
2023-05-11T06:29:52.968Z,13.00
2023-05-11T06:32:49.837Z,13.20
2023-05-11T06:35:46.652Z,13.20
2023-05-11T06:38:43.545Z,13.30
2023-05-11T06:41:40.397Z,13.30
2023-05-11T06:44:38.493Z,13.20
2023-05-11T06:47:35.733Z,13.30
2023-05-11T06:50:32.598Z,13.30
2023-05-11T06:53:29.598Z,13.40
2023-05-11T06:56:26.671Z,13.40
2023-05-11T06:59:23.594Z,13.40
2023-05-11T07:02:20.437Z,13.50
2023-05-11T07:05:17.481Z,13.60
2023-05-11T07:08:14.325Z,13.50
2023-05-11T07:11:12.969Z,13.30
2023-05-11T07:14:09.913Z,13.40
2023-05-11T07:17:06.840Z,13.40
2023-05-11T07:20:04.187Z,13.40
2023-05-11T07:23:01.225Z,13.50
2023-05-11T07:25:58.180Z,13.50
2023-05-11T07:28:55.121Z,13.40
2023-05-11T07:31:52.049Z,13.40
2023-05-11T07:34:49.577Z,13.30
2023-05-11T07:37:46.489Z,13.20
2023-05-11T07:40:43.389Z,13.00
2023-05-11T07:43:40.279Z,13.20
2023-05-11T07:46:37.143Z,13.40
2023-05-11T07:49:42.927Z,13.50
2023-05-11T07:52:41.036Z,13.50
2023-05-11T07:55:37.954Z,13.60
2023-05-11T07:58:34.854Z,13.60
2023-05-11T08:01:32.490Z,13.50
2023-05-11T08:04:30.333Z,13.40
2023-05-11T08:07:27.247Z,13.50
2023-05-11T08:10:24.209Z,13.70
2023-05-11T08:13:21.055Z,13.80
2023-05-11T08:16:18.272Z,13.60
2023-05-11T08:19:15.188Z,13.40
2023-05-11T08:22:12.289Z,13.40
2023-05-11T08:25:09.520Z,13.30
2023-05-11T08:28:06.358Z,13.60
2023-05-11T08:31:03.317Z,13.70
2023-05-11T08:34:00.270Z,13.90
2023-05-11T08:36:57.170Z,13.90
2023-05-11T08:39:54.027Z,14.00
2023-05-11T08:42:55.842Z,14.00
2023-05-11T08:46:01.105Z,14.30
2023-05-11T08:48:58.994Z,14.60
2023-05-11T08:51:56.328Z,14.70
2023-05-11T08:54:53.356Z,14.80
2023-05-11T08:57:53.311Z,14.80
2023-05-11T09:00:51.087Z,14.90
2023-05-11T09:03:48.351Z,14.70
2023-05-11T09:06:45.460Z,14.90
2023-05-11T09:09:42.440Z,14.70
2023-05-11T09:12:39.704Z,14.70
2023-05-11T09:15:37.473Z,14.50
2023-05-11T09:18:35.126Z,14.40
2023-05-11T09:21:32.698Z,14.50
2023-05-11T09:24:29.559Z,14.50
2023-05-11T09:27:28.599Z,14.10
2023-05-11T09:30:25.517Z,13.80
2023-05-11T09:33:25.223Z,14.00
2023-05-11T09:36:25.009Z,14.20
2023-05-11T09:39:44.703Z,14.20
2023-05-11T09:42:54.335Z,13.90
2023-05-11T09:45:54.123Z,13.90
2023-05-11T09:49:02.570Z,13.80
2023-05-11T09:52:01.626Z,13.60
2023-05-11T09:55:10.695Z,13.50
2023-05-11T09:58:09.119Z,13.60
2023-05-11T10:01:06.144Z,13.60
2023-05-11T10:04:17.959Z,13.80
2023-05-11T10:07:30.627Z,13.90
2023-05-11T10:10:30.343Z,13.90
2023-05-11T10:13:27.908Z,13.90
2023-05-11T10:16:25.041Z,14.00
2023-05-11T10:19:22.476Z,14.00
2023-05-11T10:22:19.366Z,13.90
2023-05-11T10:25:16.852Z,13.80
2023-05-11T10:28:13.748Z,13.80
2023-05-11T10:31:11.585Z,13.90
2023-05-11T10:34:11.972Z,14.00
2023-05-11T10:37:09.873Z,14.00
2023-05-11T10:40:09.666Z,13.90
2023-05-11T10:43:31.042Z,13.70
2023-05-11T10:46:53.192Z,13.70
2023-05-11T10:50:28.314Z,13.70
2023-05-11T10:54:14.511Z,13.60
2023-05-11T10:57:58.930Z,13.60
2023-05-11T11:01:42.963Z,13.60
2023-05-11T11:04:53.691Z,13.90
2023-05-11T11:08:09.468Z,13.80
2023-05-11T11:11:51.180Z,13.80
2023-05-11T11:15:02.351Z,14.00
2023-05-11T11:18:33.559Z,13.90
2023-05-11T11:21:42.853Z,14.00
2023-05-11T11:24:46.788Z,13.70
2023-05-11T11:27:49.507Z,13.70
2023-05-11T11:30:46.702Z,13.70
2023-05-11T11:33:44.101Z,13.80
2023-05-11T11:37:03.523Z,13.60
2023-05-11T11:40:13.175Z,13.70
2023-05-11T11:43:17.754Z,13.70
2023-05-11T11:46:28.840Z,13.60
2023-05-11T11:49:27.556Z,13.50
2023-05-11T11:52:27.470Z,13.80
2023-05-11T11:55:52.011Z,13.80
2023-05-11T11:58:48.996Z,13.80
2023-05-11T12:01:51.149Z,14.00
2023-05-11T12:05:09.472Z,14.30
2023-05-11T12:08:10.330Z,14.30
2023-05-11T12:11:07.920Z,14.30
2023-05-11T12:14:06.054Z,14.40
2023-05-11T12:17:05.319Z,14.50
2023-05-11T12:20:14.190Z,14.70
2023-05-11T12:23:12.451Z,14.80
2023-05-11T12:26:09.396Z,14.60
2023-05-11T12:29:12.733Z,14.70
2023-05-11T12:32:13.199Z,14.90
2023-05-11T12:35:10.385Z,15.20
2023-05-11T12:38:11.657Z,15.20
2023-05-11T12:41:08.491Z,15.40
2023-05-11T12:44:05.476Z,15.50
2023-05-11T12:47:02.568Z,15.30
2023-05-11T12:49:59.464Z,15.30
2023-05-11T12:53:17.029Z,15.30
2023-05-11T12:56:13.948Z,15.20
2023-05-11T12:59:24.905Z,15.00
2023-05-11T13:02:21.844Z,15.00
2023-05-11T13:05:26.886Z,14.90
2023-05-11T13:08:23.825Z,14.90
2023-05-11T13:11:24.567Z,14.60
2023-05-11T13:14:22.403Z,14.60
2023-05-11T13:17:33.820Z,14.30
2023-05-11T13:20:34.245Z,14.40
2023-05-11T13:23:31.743Z,14.40
2023-05-11T13:26:31.731Z,14.50
2023-05-11T13:29:28.894Z,14.50
2023-05-11T13:32:25.717Z,14.50
2023-05-11T13:35:22.570Z,14.40
2023-05-11T13:38:19.387Z,14.30
2023-05-11T13:41:17.033Z,14.40
2023-05-11T13:44:14.053Z,14.40
2023-05-11T13:47:11.524Z,14.50
2023-05-11T13:50:09.262Z,14.30
2023-05-11T13:53:06.280Z,14.10
2023-05-11T13:56:04.358Z,14.00
2023-05-11T13:59:01.308Z,13.90
2023-05-11T14:01:58.264Z,13.90
2023-05-11T14:04:55.203Z,13.90
2023-05-11T14:07:52.132Z,14.00
2023-05-11T14:10:49.041Z,14.30
2023-05-11T14:13:45.930Z,14.30
2023-05-11T14:16:42.907Z,13.90
2023-05-11T14:19:40.220Z,14.20
2023-05-11T14:22:37.535Z,14.00
2023-05-11T14:25:36.145Z,14.00
2023-05-11T14:28:32.997Z,13.80
2023-05-11T14:31:29.994Z,13.90
2023-05-11T14:34:27.111Z,14.10
2023-05-11T14:37:23.940Z,13.80
2023-05-11T14:40:21.163Z,13.90
2023-05-11T14:43:18.210Z,13.80
2023-05-11T14:46:16.156Z,13.90
2023-05-11T14:49:13.122Z,13.80
2023-05-11T14:52:10.680Z,14.00
2023-05-11T14:55:08.285Z,13.90
2023-05-11T14:58:09.077Z,13.90
2023-05-11T15:01:05.996Z,14.00
2023-05-11T15:04:02.853Z,14.00
2023-05-11T15:06:59.706Z,14.30
2023-05-11T15:09:56.659Z,14.10
2023-05-11T15:12:53.786Z,13.90
2023-05-11T15:15:51.406Z,13.90
2023-05-11T15:18:48.388Z,13.80
2023-05-11T15:21:45.424Z,13.80
2023-05-11T15:24:42.319Z,13.60
2023-05-11T15:27:39.172Z,13.50
2023-05-11T15:30:36.019Z,13.60
2023-05-11T15:33:33.473Z,13.70
2023-05-11T15:36:30.651Z,13.70
2023-05-11T15:39:27.918Z,13.50
2023-05-11T15:42:25.312Z,13.50
2023-05-11T15:45:22.230Z,13.50
2023-05-11T15:48:19.072Z,13.50
2023-05-11T15:51:15.945Z,13.50
2023-05-11T15:54:12.856Z,13.70
2023-05-11T15:57:09.709Z,13.70
2023-05-11T16:00:10.126Z,13.90
2023-05-11T16:03:07.559Z,13.70
2023-05-11T16:06:05.278Z,13.70
2023-05-11T16:09:02.336Z,13.90
2023-05-11T16:11:59.181Z,13.70
2023-05-11T16:14:56.396Z,13.80
2023-05-11T16:17:53.330Z,13.90
2023-05-11T16:20:50.303Z,14.00
2023-05-11T16:23:47.246Z,13.90
2023-05-11T16:26:44.365Z,13.60
2023-05-11T16:29:41.218Z,13.50
2023-05-11T16:32:38.078Z,13.40
2023-05-11T16:35:34.963Z,13.40
2023-05-11T16:38:32.042Z,13.60
2023-05-11T16:41:29.007Z,13.60
2023-05-11T16:44:25.861Z,13.70
2023-05-11T16:47:22.730Z,13.70
2023-05-11T16:50:19.778Z,13.80
2023-05-11T16:53:17.563Z,13.90
2023-05-11T16:56:14.830Z,13.50
2023-05-11T16:59:11.800Z,13.50
2023-05-11T17:02:08.636Z,13.60
2023-05-11T17:05:07.276Z,13.50
2023-05-11T17:08:04.270Z,13.50
2023-05-11T17:11:01.274Z,13.10
2023-05-11T17:13:58.141Z,13.30
2023-05-11T17:16:54.950Z,13.10
2023-05-11T17:19:51.843Z,13.00
2023-05-11T17:22:49.063Z,12.90
2023-05-11T17:25:45.880Z,12.80
2023-05-11T17:28:42.764Z,12.70
2023-05-11T17:31:40.525Z,12.70
2023-05-11T17:34:37.584Z,12.80
2023-05-11T17:37:34.473Z,12.80
2023-05-11T17:40:31.372Z,12.80
2023-05-11T17:43:28.312Z,12.90
2023-05-11T17:46:25.450Z,13.00
2023-05-11T17:49:22.371Z,13.10
2023-05-11T17:52:19.203Z,12.70
2023-05-11T17:55:16.296Z,12.70
2023-05-11T17:58:13.274Z,12.70
2023-05-11T18:01:13.953Z,12.70
2023-05-11T18:04:10.867Z,12.80
2023-05-11T18:07:09.263Z,12.70
2023-05-11T18:10:07.022Z,12.70
2023-05-11T18:13:04.286Z,12.70
2023-05-11T18:16:01.166Z,12.60
2023-05-11T18:18:59.686Z,12.40
2023-05-11T18:21:56.760Z,12.50
2023-05-11T18:24:53.648Z,12.50
2023-05-11T18:27:50.524Z,12.40
2023-05-11T18:30:47.406Z,12.40
2023-05-11T18:33:44.449Z,12.50
2023-05-11T18:36:42.121Z,12.40
2023-05-11T18:39:39.351Z,12.30
2023-05-11T18:42:36.320Z,12.40
2023-05-11T18:45:34.769Z,12.30
2023-05-11T18:48:31.632Z,12.10
2023-05-11T18:51:28.875Z,12.10
2023-05-11T18:54:26.043Z,12.10
2023-05-11T18:57:22.983Z,12.00
2023-05-11T19:00:20.585Z,12.20
2023-05-11T19:03:20.559Z,12.10
2023-05-11T19:06:17.627Z,12.00
2023-05-11T19:09:14.514Z,12.00
2023-05-11T19:12:11.676Z,12.10
2023-05-11T19:15:09.407Z,12.10
2023-05-11T19:18:06.388Z,11.90
2023-05-11T19:21:05.217Z,11.80
2023-05-11T19:24:02.161Z,11.90
2023-05-11T19:27:06.571Z,11.80
2023-05-11T19:30:05.192Z,11.70
2023-05-11T19:33:02.241Z,11.90
2023-05-11T19:35:59.347Z,11.80
2023-05-11T19:38:57.013Z,11.70
2023-05-11T19:41:53.885Z,11.50
2023-05-11T19:44:52.332Z,11.40
2023-05-11T19:47:49.309Z,11.40
2023-05-11T19:50:46.264Z,11.20
2023-05-11T19:53:43.575Z,11.10
2023-05-11T19:56:41.605Z,11.10
2023-05-11T19:59:39.052Z,11.10
2023-05-11T20:02:36.443Z,11.00
2023-05-11T20:05:34.017Z,11.00
2023-05-11T20:08:30.970Z,11.20
2023-05-11T20:11:28.529Z,11.30
2023-05-11T20:14:25.706Z,11.10
2023-05-11T20:17:22.717Z,11.20
2023-05-11T20:20:19.765Z,11.00
2023-05-11T20:23:16.900Z,10.80
2023-05-11T20:26:13.787Z,11.00
2023-05-11T20:29:10.642Z,11.00
2023-05-11T20:32:08.001Z,11.00
2023-05-11T20:35:06.099Z,10.90
2023-05-11T20:38:03.002Z,10.80
2023-05-11T20:40:59.910Z,10.80
2023-05-11T20:43:56.827Z,10.80
2023-05-11T20:46:53.662Z,10.80
2023-05-11T20:49:50.561Z,11.00
2023-05-11T20:52:47.475Z,10.90
2023-05-11T20:55:44.888Z,10.90
2023-05-11T20:58:41.727Z,11.00
2023-05-11T21:01:39.410Z,10.80
2023-05-11T21:04:37.861Z,10.70
2023-05-11T21:07:34.748Z,10.70
2023-05-11T21:10:31.901Z,10.60
2023-05-11T21:13:30.325Z,10.70
2023-05-11T21:16:27.227Z,10.90
2023-05-11T21:19:24.170Z,10.70
2023-05-11T21:22:21.022Z,10.70
2023-05-11T21:25:17.975Z,10.80
2023-05-11T21:28:14.830Z,10.70
2023-05-11T21:31:11.812Z,10.70
2023-05-11T21:34:08.743Z,10.70
2023-05-11T21:37:05.682Z,10.60
2023-05-11T21:40:02.553Z,10.70
2023-05-11T21:42:59.411Z,10.50
2023-05-11T21:45:56.323Z,10.60
2023-05-11T21:48:53.223Z,10.50
2023-05-11T21:51:50.323Z,10.50
2023-05-11T21:54:47.156Z,10.70
2023-05-11T21:57:44.017Z,10.70
2023-05-11T22:00:41.126Z,10.70
2023-05-11T22:03:38.170Z,10.70
2023-05-11T22:06:35.350Z,10.70
2023-05-11T22:09:32.171Z,10.60
2023-05-11T22:12:29.072Z,10.60
2023-05-11T22:15:27.287Z,10.60
2023-05-11T22:18:24.158Z,10.60
2023-05-11T22:21:21.013Z,10.60
2023-05-11T22:24:17.831Z,10.60
2023-05-11T22:27:16.214Z,10.60
2023-05-11T22:30:13.304Z,10.50
2023-05-11T22:33:10.129Z,10.40
2023-05-11T22:36:07.457Z,10.60
2023-05-11T22:39:05.632Z,10.60
2023-05-11T22:42:02.526Z,10.50
2023-05-11T22:44:59.368Z,10.40
2023-05-11T22:47:56.222Z,10.40
2023-05-11T22:50:53.723Z,10.30
2023-05-11T22:53:50.613Z,10.30
2023-05-11T22:56:47.426Z,10.40
2023-05-11T22:59:46.625Z,10.30
2023-05-11T23:02:43.499Z,10.30
2023-05-11T23:05:40.374Z,10.40
2023-05-11T23:08:37.198Z,10.40
2023-05-11T23:11:34.304Z,10.30
2023-05-11T23:14:31.178Z,10.30
2023-05-11T23:17:28.188Z,10.30
2023-05-11T23:20:25.087Z,10.20
2023-05-11T23:23:22.124Z,10.30
2023-05-11T23:26:18.994Z,10.40
2023-05-11T23:29:15.909Z,10.40
2023-05-11T23:32:12.784Z,10.30
2023-05-11T23:35:10.802Z,10.20
2023-05-11T23:38:08.194Z,10.30
2023-05-11T23:41:05.077Z,10.20
2023-05-11T23:44:02.459Z,10.20
2023-05-11T23:46:59.444Z,10.20
2023-05-11T23:49:56.843Z,10.20
2023-05-11T23:52:53.674Z,10.10
2023-05-11T23:55:50.726Z,10.20
2023-05-11T23:58:48.109Z,10.10
